sensor_id;sensor_type;location;lat;lon;timestamp;temperature;humidity
78184;DHT22;67442;44.570;18.610;2023-11-21T00:02:06;22.10;70.90
78184;DHT22;67442;44.570;18.610;2023-11-21T00:04:34;22.20;70.90
78184;DHT22;67442;44.570;18.610;2023-11-21T00:07:00;22.20;70.90
78184;DHT22;67442;44.570;18.610;2023-11-21T00:09:28;22.20;70.90
78184;DHT22;67442;44.570;18.610;2023-11-21T00:11:54;22.20;70.90
78184;DHT22;67442;44.570;18.610;2023-11-21T00:14:22;22.20;71.00
78184;DHT22;67442;44.570;18.610;2023-11-21T00:16:52;22.20;70.90
78184;DHT22;67442;44.570;18.610;2023-11-21T00:19:24;22.10;70.90
78184;DHT22;67442;44.570;18.610;2023-11-21T00:21:51;22.20;70.90
78184;DHT22;67442;44.570;18.610;2023-11-21T00:24:23;22.20;70.90
78184;DHT22;67442;44.570;18.610;2023-11-21T00:26:51;22.20;70.90
78184;DHT22;67442;44.570;18.610;2023-11-21T00:29:23;22.20;70.90
78184;DHT22;67442;44.570;18.610;2023-11-21T00:31:50;22.20;70.90
78184;DHT22;67442;44.570;18.610;2023-11-21T00:34:17;22.20;70.90
78184;DHT22;67442;44.570;18.610;2023-11-21T00:36:45;22.20;70.90
78184;DHT22;67442;44.570;18.610;2023-11-21T00:39:12;22.20;70.90
78184;DHT22;67442;44.570;18.610;2023-11-21T00:41:39;22.20;71.00
78184;DHT22;67442;44.570;18.610;2023-11-21T00:44:06;22.20;70.90
78184;DHT22;67442;44.570;18.610;2023-11-21T00:46:37;22.10;70.90
78184;DHT22;67442;44.570;18.610;2023-11-21T00:49:05;22.20;71.00
78184;DHT22;67442;44.570;18.610;2023-11-21T00:51:32;22.20;71.00
78184;DHT22;67442;44.570;18.610;2023-11-21T00:54:00;22.10;70.90
78184;DHT22;67442;44.570;18.610;2023-11-21T00:56:26;22.10;70.90
78184;DHT22;67442;44.570;18.610;2023-11-21T00:58:54;22.10;70.90
78184;DHT22;67442;44.570;18.610;2023-11-21T01:01:21;22.20;71.00
78184;DHT22;67442;44.570;18.610;2023-11-21T01:03:51;22.10;71.00
78184;DHT22;67442;44.570;18.610;2023-11-21T01:06:23;22.20;71.00
78184;DHT22;67442;44.570;18.610;2023-11-21T01:08:50;22.10;70.90
78184;DHT22;67442;44.570;18.610;2023-11-21T01:11:21;22.10;71.00
78184;DHT22;67442;44.570;18.610;2023-11-21T01:13:48;22.10;70.90
78184;DHT22;67442;44.570;18.610;2023-11-21T01:16:19;22.10;70.90
78184;DHT22;67442;44.570;18.610;2023-11-21T01:18:46;22.10;70.90
78184;DHT22;67442;44.570;18.610;2023-11-21T01:21:17;22.10;70.90
78184;DHT22;67442;44.570;18.610;2023-11-21T01:23:45;22.10;70.90
78184;DHT22;67442;44.570;18.610;2023-11-21T01:26:14;22.10;70.90
78184;DHT22;67442;44.570;18.610;2023-11-21T01:28:41;22.10;70.90
78184;DHT22;67442;44.570;18.610;2023-11-21T01:31:08;22.10;70.90
78184;DHT22;67442;44.570;18.610;2023-11-21T01:33:36;22.10;70.90
78184;DHT22;67442;44.570;18.610;2023-11-21T01:36:04;22.10;70.90
78184;DHT22;67442;44.570;18.610;2023-11-21T01:38:32;22.10;70.90
78184;DHT22;67442;44.570;18.610;2023-11-21T01:41:04;22.10;70.90
78184;DHT22;67442;44.570;18.610;2023-11-21T01:43:32;22.10;70.90
78184;DHT22;67442;44.570;18.610;2023-11-21T01:46:00;22.10;71.00
78184;DHT22;67442;44.570;18.610;2023-11-21T01:48:28;22.10;70.90
78184;DHT22;67442;44.570;18.610;2023-11-21T01:50:55;22.10;70.90
78184;DHT22;67442;44.570;18.610;2023-11-21T01:53:25;22.10;71.00
78184;DHT22;67442;44.570;18.610;2023-11-21T01:55:54;22.10;70.90
78184;DHT22;67442;44.570;18.610;2023-11-21T01:58:22;22.10;70.90
78184;DHT22;67442;44.570;18.610;2023-11-21T02:00:49;22.10;70.90
78184;DHT22;67442;44.570;18.610;2023-11-21T02:03:17;22.10;71.00
78184;DHT22;67442;44.570;18.610;2023-11-21T02:05:45;22.10;70.90
78184;DHT22;67442;44.570;18.610;2023-11-21T02:08:12;22.10;70.90
78184;DHT22;67442;44.570;18.610;2023-11-21T02:10:39;22.10;70.90
78184;DHT22;67442;44.570;18.610;2023-11-21T02:13:07;22.10;70.90
78184;DHT22;67442;44.570;18.610;2023-11-21T02:15:34;22.10;71.00
78184;DHT22;67442;44.570;18.610;2023-11-21T02:18:02;22.10;70.90
78184;DHT22;67442;44.570;18.610;2023-11-21T02:20:29;22.10;70.90
78184;DHT22;67442;44.570;18.610;2023-11-21T02:23:00;22.10;70.90
78184;DHT22;67442;44.570;18.610;2023-11-21T02:25:29;22.10;71.00
78184;DHT22;67442;44.570;18.610;2023-11-21T02:27:58;22.10;71.00
78184;DHT22;67442;44.570;18.610;2023-11-21T02:30:26;22.10;71.00
78184;DHT22;67442;44.570;18.610;2023-11-21T02:32:57;22.10;71.00
78184;DHT22;67442;44.570;18.610;2023-11-21T02:35:28;22.10;70.90
78184;DHT22;67442;44.570;18.610;2023-11-21T02:37:54;22.10;70.90
78184;DHT22;67442;44.570;18.610;2023-11-21T02:40:22;22.10;71.00
78184;DHT22;67442;44.570;18.610;2023-11-21T02:42:54;22.00;70.90
78184;DHT22;67442;44.570;18.610;2023-11-21T02:45:28;22.10;71.00
78184;DHT22;67442;44.570;18.610;2023-11-21T02:47:58;22.10;71.00
78184;DHT22;67442;44.570;18.610;2023-11-21T02:50:25;22.10;71.00
78184;DHT22;67442;44.570;18.610;2023-11-21T02:52:56;22.10;71.00
78184;DHT22;67442;44.570;18.610;2023-11-21T02:55:27;22.10;71.00
78184;DHT22;67442;44.570;18.610;2023-11-21T02:57:54;22.10;71.00
78184;DHT22;67442;44.570;18.610;2023-11-21T03:00:24;22.10;71.00
78184;DHT22;67442;44.570;18.610;2023-11-21T03:02:52;22.10;71.00
78184;DHT22;67442;44.570;18.610;2023-11-21T03:05:20;22.10;71.00
78184;DHT22;67442;44.570;18.610;2023-11-21T03:07:47;22.10;71.00
78184;DHT22;67442;44.570;18.610;2023-11-21T03:10:14;22.10;71.00
78184;DHT22;67442;44.570;18.610;2023-11-21T03:12:42;22.10;71.00
78184;DHT22;67442;44.570;18.610;2023-11-21T03:15:11;22.10;71.00
78184;DHT22;67442;44.570;18.610;2023-11-21T03:17:38;22.10;71.10
78184;DHT22;67442;44.570;18.610;2023-11-21T03:20:10;22.10;71.10
78184;DHT22;67442;44.570;18.610;2023-11-21T03:22:38;22.10;71.10
78184;DHT22;67442;44.570;18.610;2023-11-21T03:25:06;22.10;71.10
78184;DHT22;67442;44.570;18.610;2023-11-21T03:27:37;22.10;71.10
78184;DHT22;67442;44.570;18.610;2023-11-21T03:30:09;22.10;71.10
78184;DHT22;67442;44.570;18.610;2023-11-21T03:32:36;22.10;71.00
78184;DHT22;67442;44.570;18.610;2023-11-21T03:35:04;22.10;71.10
78184;DHT22;67442;44.570;18.610;2023-11-21T03:37:32;22.10;71.10
78184;DHT22;67442;44.570;18.610;2023-11-21T03:39:59;22.10;71.10
78184;DHT22;67442;44.570;18.610;2023-11-21T03:42:26;22.10;71.10
78184;DHT22;67442;44.570;18.610;2023-11-21T03:44:54;22.10;71.10
78184;DHT22;67442;44.570;18.610;2023-11-21T03:47:21;22.10;71.10
78184;DHT22;67442;44.570;18.610;2023-11-21T03:49:47;22.10;71.10
78184;DHT22;67442;44.570;18.610;2023-11-21T03:52:14;22.10;71.10
78184;DHT22;67442;44.570;18.610;2023-11-21T03:54:42;22.10;71.10
78184;DHT22;67442;44.570;18.610;2023-11-21T03:57:09;22.10;71.10
78184;DHT22;67442;44.570;18.610;2023-11-21T03:59:39;22.10;71.10
78184;DHT22;67442;44.570;18.610;2023-11-21T04:02:10;22.10;71.10
78184;DHT22;67442;44.570;18.610;2023-11-21T04:04:37;22.10;71.10
78184;DHT22;67442;44.570;18.610;2023-11-21T04:07:08;22.10;71.10
78184;DHT22;67442;44.570;18.610;2023-11-21T04:09:36;22.10;71.10
78184;DHT22;67442;44.570;18.610;2023-11-21T04:12:04;22.10;71.10
78184;DHT22;67442;44.570;18.610;2023-11-21T04:14:32;22.00;71.00
78184;DHT22;67442;44.570;18.610;2023-11-21T04:17:03;22.10;71.10
78184;DHT22;67442;44.570;18.610;2023-11-21T04:19:34;22.10;71.10
78184;DHT22;67442;44.570;18.610;2023-11-21T04:22:02;22.10;71.10
78184;DHT22;67442;44.570;18.610;2023-11-21T04:24:30;22.00;71.00
78184;DHT22;67442;44.570;18.610;2023-11-21T04:26:57;22.10;71.10
78184;DHT22;67442;44.570;18.610;2023-11-21T04:29:28;22.10;71.10
78184;DHT22;67442;44.570;18.610;2023-11-21T04:31:55;22.10;71.10
78184;DHT22;67442;44.570;18.610;2023-11-21T04:34:22;22.10;71.10
78184;DHT22;67442;44.570;18.610;2023-11-21T04:36:50;22.10;71.10
78184;DHT22;67442;44.570;18.610;2023-11-21T04:39:21;22.10;71.10
78184;DHT22;67442;44.570;18.610;2023-11-21T04:41:48;22.10;71.10
78184;DHT22;67442;44.570;18.610;2023-11-21T04:44:16;22.10;71.10
78184;DHT22;67442;44.570;18.610;2023-11-21T04:46:43;22.10;71.10
78184;DHT22;67442;44.570;18.610;2023-11-21T04:49:10;22.00;71.00
78184;DHT22;67442;44.570;18.610;2023-11-21T04:51:38;22.10;71.10
78184;DHT22;67442;44.570;18.610;2023-11-21T04:54:05;22.10;71.10
78184;DHT22;67442;44.570;18.610;2023-11-21T04:56:32;22.10;71.10
78184;DHT22;67442;44.570;18.610;2023-11-21T04:59:03;22.10;71.10
78184;DHT22;67442;44.570;18.610;2023-11-21T05:01:31;22.10;71.10
78184;DHT22;67442;44.570;18.610;2023-11-21T05:03:58;22.10;71.20
78184;DHT22;67442;44.570;18.610;2023-11-21T05:06:29;22.10;71.10
78184;DHT22;67442;44.570;18.610;2023-11-21T05:09:01;22.10;71.20
78184;DHT22;67442;44.570;18.610;2023-11-21T05:11:29;22.10;71.10
78184;DHT22;67442;44.570;18.610;2023-11-21T05:13:55;22.10;71.10
78184;DHT22;67442;44.570;18.610;2023-11-21T05:16:25;22.10;71.10
78184;DHT22;67442;44.570;18.610;2023-11-21T05:18:53;22.10;71.10
78184;DHT22;67442;44.570;18.610;2023-11-21T05:21:29;22.10;71.10
78184;DHT22;67442;44.570;18.610;2023-11-21T05:24:00;22.10;71.10
78184;DHT22;67442;44.570;18.610;2023-11-21T05:26:27;22.10;71.10
78184;DHT22;67442;44.570;18.610;2023-11-21T05:28:58;22.10;71.10
78184;DHT22;67442;44.570;18.610;2023-11-21T05:31:25;22.10;71.10
78184;DHT22;67442;44.570;18.610;2023-11-21T05:33:56;22.10;71.10
78184;DHT22;67442;44.570;18.610;2023-11-21T05:36:23;22.10;71.10
78184;DHT22;67442;44.570;18.610;2023-11-21T05:38:51;22.10;71.10
78184;DHT22;67442;44.570;18.610;2023-11-21T05:41:22;22.10;71.30
78184;DHT22;67442;44.570;18.610;2023-11-21T05:43:50;22.10;71.10
78184;DHT22;67442;44.570;18.610;2023-11-21T05:46:17;22.10;71.10
78184;DHT22;67442;44.570;18.610;2023-11-21T05:48:44;22.10;71.10
78184;DHT22;67442;44.570;18.610;2023-11-21T05:51:12;22.10;71.10
78184;DHT22;67442;44.570;18.610;2023-11-21T05:53:40;22.10;71.10
78184;DHT22;67442;44.570;18.610;2023-11-21T05:56:10;22.10;71.10
78184;DHT22;67442;44.570;18.610;2023-11-21T05:58:38;22.10;71.10
78184;DHT22;67442;44.570;18.610;2023-11-21T06:01:06;22.10;71.10
78184;DHT22;67442;44.570;18.610;2023-11-21T06:03:53;22.10;71.10
78184;DHT22;67442;44.570;18.610;2023-11-21T06:06:21;22.10;71.10
78184;DHT22;67442;44.570;18.610;2023-11-21T06:08:52;22.10;71.10
78184;DHT22;67442;44.570;18.610;2023-11-21T06:11:24;22.10;71.10
78184;DHT22;67442;44.570;18.610;2023-11-21T06:13:55;22.00;71.00
78184;DHT22;67442;44.570;18.610;2023-11-21T06:16:22;22.10;71.10
78184;DHT22;67442;44.570;18.610;2023-11-21T06:18:50;22.00;71.00
78184;DHT22;67442;44.570;18.610;2023-11-21T06:21:21;22.00;70.90
78184;DHT22;67442;44.570;18.610;2023-11-21T06:23:49;22.00;70.90
78184;DHT22;67442;44.570;18.610;2023-11-21T06:26:22;22.00;70.90
78184;DHT22;67442;44.570;18.610;2023-11-21T06:28:49;22.00;70.90
78184;DHT22;67442;44.570;18.610;2023-11-21T06:31:17;22.00;70.90
78184;DHT22;67442;44.570;18.610;2023-11-21T06:33:45;22.00;70.70
78184;DHT22;67442;44.570;18.610;2023-11-21T06:36:16;22.00;70.70
78184;DHT22;67442;44.570;18.610;2023-11-21T06:38:43;22.00;70.70
78184;DHT22;67442;44.570;18.610;2023-11-21T06:41:12;21.90;70.70
78184;DHT22;67442;44.570;18.610;2023-11-21T06:43:42;21.90;70.60
78184;DHT22;67442;44.570;18.610;2023-11-21T06:46:15;21.90;70.60
78184;DHT22;67442;44.570;18.610;2023-11-21T06:48:45;21.90;70.60
78184;DHT22;67442;44.570;18.610;2023-11-21T06:51:13;21.90;70.60
78184;DHT22;67442;44.570;18.610;2023-11-21T06:53:40;21.90;70.60
78184;DHT22;67442;44.570;18.610;2023-11-21T06:56:18;21.90;70.60
78184;DHT22;67442;44.570;18.610;2023-11-21T06:58:49;21.90;70.60
78184;DHT22;67442;44.570;18.610;2023-11-21T07:01:20;21.90;70.60
78184;DHT22;67442;44.570;18.610;2023-11-21T07:03:51;21.90;70.50
78184;DHT22;67442;44.570;18.610;2023-11-21T07:06:22;21.90;70.50
78184;DHT22;67442;44.570;18.610;2023-11-21T07:08:49;21.90;70.40
78184;DHT22;67442;44.570;18.610;2023-11-21T07:11:22;21.90;70.40
78184;DHT22;67442;44.570;18.610;2023-11-21T07:13:50;21.90;70.40
78184;DHT22;67442;44.570;18.610;2023-11-21T07:16:19;21.80;70.40
78184;DHT22;67442;44.570;18.610;2023-11-21T07:18:51;21.90;70.40
78184;DHT22;67442;44.570;18.610;2023-11-21T07:21:18;21.80;70.40
78184;DHT22;67442;44.570;18.610;2023-11-21T07:23:46;21.80;70.30
78184;DHT22;67442;44.570;18.610;2023-11-21T07:26:17;21.80;70.30
78184;DHT22;67442;44.570;18.610;2023-11-21T07:28:44;21.80;70.30
78184;DHT22;67442;44.570;18.610;2023-11-21T07:31:11;21.80;70.40
78184;DHT22;67442;44.570;18.610;2023-11-21T07:33:39;21.80;70.30
78184;DHT22;67442;44.570;18.610;2023-11-21T07:36:08;21.80;70.30
78184;DHT22;67442;44.570;18.610;2023-11-21T07:38:37;21.80;70.30
78184;DHT22;67442;44.570;18.610;2023-11-21T07:41:08;21.80;70.30
78184;DHT22;67442;44.570;18.610;2023-11-21T07:43:35;21.80;70.30
78184;DHT22;67442;44.570;18.610;2023-11-21T07:46:02;21.80;70.30
78184;DHT22;67442;44.570;18.610;2023-11-21T07:48:33;21.80;70.30
78184;DHT22;67442;44.570;18.610;2023-11-21T07:51:02;21.80;70.20
78184;DHT22;67442;44.570;18.610;2023-11-21T07:53:29;21.80;70.20
78184;DHT22;67442;44.570;18.610;2023-11-21T07:55:57;21.70;70.20
78184;DHT22;67442;44.570;18.610;2023-11-21T07:58:25;21.80;70.20
78184;DHT22;67442;44.570;18.610;2023-11-21T08:00:52;21.70;70.20
78184;DHT22;67442;44.570;18.610;2023-11-21T08:03:20;21.80;70.20
78184;DHT22;67442;44.570;18.610;2023-11-21T08:05:47;21.70;70.20
78184;DHT22;67442;44.570;18.610;2023-11-21T08:08:18;21.70;70.90
78184;DHT22;67442;44.570;18.610;2023-11-21T08:10:45;21.70;70.10
78184;DHT22;67442;44.570;18.610;2023-11-21T08:13:26;21.70;70.10
78184;DHT22;67442;44.570;18.610;2023-11-21T08:15:57;21.70;70.10
78184;DHT22;67442;44.570;18.610;2023-11-21T08:18:27;21.70;70.10
78184;DHT22;67442;44.570;18.610;2023-11-21T08:20:54;21.70;70.10
78184;DHT22;67442;44.570;18.610;2023-11-21T08:23:21;21.70;70.10
78184;DHT22;67442;44.570;18.610;2023-11-21T08:25:51;21.70;70.10
78184;DHT22;67442;44.570;18.610;2023-11-21T08:28:18;21.70;70.10
78184;DHT22;67442;44.570;18.610;2023-11-21T08:30:46;21.60;70.00
78184;DHT22;67442;44.570;18.610;2023-11-21T08:33:14;21.70;70.10
78184;DHT22;67442;44.570;18.610;2023-11-21T08:35:41;21.70;70.00
78184;DHT22;67442;44.570;18.610;2023-11-21T08:38:09;21.70;70.00
78184;DHT22;67442;44.570;18.610;2023-11-21T08:40:37;21.60;70.00
78184;DHT22;67442;44.570;18.610;2023-11-21T08:43:08;21.70;70.00
78184;DHT22;67442;44.570;18.610;2023-11-21T08:45:35;21.70;70.10
78184;DHT22;67442;44.570;18.610;2023-11-21T08:48:04;21.70;70.00
78184;DHT22;67442;44.570;18.610;2023-11-21T08:50:31;21.60;70.00
78184;DHT22;67442;44.570;18.610;2023-11-21T08:53:03;21.70;70.00
78184;DHT22;67442;44.570;18.610;2023-11-21T08:55:34;21.60;70.00
78184;DHT22;67442;44.570;18.610;2023-11-21T08:58:03;21.60;69.90
78184;DHT22;67442;44.570;18.610;2023-11-21T09:00:35;21.60;70.00
78184;DHT22;67442;44.570;18.610;2023-11-21T09:03:04;21.60;69.90
78184;DHT22;67442;44.570;18.610;2023-11-21T09:05:38;21.60;70.00
78184;DHT22;67442;44.570;18.610;2023-11-21T09:08:09;21.60;70.00
78184;DHT22;67442;44.570;18.610;2023-11-21T09:10:36;21.60;69.90
78184;DHT22;67442;44.570;18.610;2023-11-21T09:13:04;21.60;69.90
78184;DHT22;67442;44.570;18.610;2023-11-21T09:15:30;21.60;69.90
78184;DHT22;67442;44.570;18.610;2023-11-21T09:18:02;21.60;69.90
78184;DHT22;67442;44.570;18.610;2023-11-21T09:20:29;21.60;70.00
78184;DHT22;67442;44.570;18.610;2023-11-21T09:23:00;21.60;70.00
78184;DHT22;67442;44.570;18.610;2023-11-21T09:25:28;21.60;69.90
78184;DHT22;67442;44.570;18.610;2023-11-21T09:27:56;21.60;69.90
78184;DHT22;67442;44.570;18.610;2023-11-21T09:30:27;21.50;69.80
78184;DHT22;67442;44.570;18.610;2023-11-21T09:32:59;21.60;69.90
78184;DHT22;67442;44.570;18.610;2023-11-21T09:35:27;21.50;69.80
78184;DHT22;67442;44.570;18.610;2023-11-21T09:37:54;21.50;69.80
78184;DHT22;67442;44.570;18.610;2023-11-21T09:40:25;21.50;69.80
78184;DHT22;67442;44.570;18.610;2023-11-21T09:42:56;21.50;69.80
78184;DHT22;67442;44.570;18.610;2023-11-21T09:45:32;21.60;69.90
78184;DHT22;67442;44.570;18.610;2023-11-21T09:48:05;21.60;69.90
78184;DHT22;67442;44.570;18.610;2023-11-21T09:50:35;21.60;69.90
78184;DHT22;67442;44.570;18.610;2023-11-21T09:55:45;21.50;69.70
78184;DHT22;67442;44.570;18.610;2023-11-21T09:58:14;21.50;69.80
78184;DHT22;67442;44.570;18.610;2023-11-21T10:00:43;21.50;69.70
78184;DHT22;67442;44.570;18.610;2023-11-21T10:03:14;21.50;69.80
78184;DHT22;67442;44.570;18.610;2023-11-21T10:05:45;21.50;69.70
78184;DHT22;67442;44.570;18.610;2023-11-21T10:08:13;21.50;69.70
78184;DHT22;67442;44.570;18.610;2023-11-21T10:10:44;21.50;69.70
78184;DHT22;67442;44.570;18.610;2023-11-21T10:13:13;21.50;69.70
78184;DHT22;67442;44.570;18.610;2023-11-21T10:16:06;21.50;69.70
78184;DHT22;67442;44.570;18.610;2023-11-21T10:18:34;21.50;69.70
78184;DHT22;67442;44.570;18.610;2023-11-21T10:21:05;21.50;69.70
78184;DHT22;67442;44.570;18.610;2023-11-21T10:23:36;21.50;69.80
78184;DHT22;67442;44.570;18.610;2023-11-21T10:26:05;21.50;69.70
78184;DHT22;67442;44.570;18.610;2023-11-21T10:28:37;21.50;69.70
78184;DHT22;67442;44.570;18.610;2023-11-21T10:31:07;21.50;69.80
78184;DHT22;67442;44.570;18.610;2023-11-21T10:33:38;21.50;69.70
78184;DHT22;67442;44.570;18.610;2023-11-21T10:36:10;21.50;69.70
78184;DHT22;67442;44.570;18.610;2023-11-21T10:38:43;21.50;69.70
78184;DHT22;67442;44.570;18.610;2023-11-21T10:41:16;21.40;69.70
78184;DHT22;67442;44.570;18.610;2023-11-21T10:43:44;21.40;69.70
78184;DHT22;67442;44.570;18.610;2023-11-21T10:46:12;21.50;69.70
78184;DHT22;67442;44.570;18.610;2023-11-21T10:48:45;21.50;69.70
78184;DHT22;67442;44.570;18.610;2023-11-21T10:51:13;21.50;69.70
78184;DHT22;67442;44.570;18.610;2023-11-21T10:53:45;21.40;69.60
78184;DHT22;67442;44.570;18.610;2023-11-21T10:56:14;21.40;69.70
78184;DHT22;67442;44.570;18.610;2023-11-21T10:58:46;21.50;69.70
78184;DHT22;67442;44.570;18.610;2023-11-21T11:01:18;21.40;69.70
78184;DHT22;67442;44.570;18.610;2023-11-21T11:03:45;21.40;69.70
78184;DHT22;67442;44.570;18.610;2023-11-21T11:06:18;21.40;69.60
78184;DHT22;67442;44.570;18.610;2023-11-21T11:08:45;21.40;69.60
78184;DHT22;67442;44.570;18.610;2023-11-21T11:11:14;21.40;69.70
78184;DHT22;67442;44.570;18.610;2023-11-21T11:13:45;21.40;69.60
78184;DHT22;67442;44.570;18.610;2023-11-21T11:16:12;21.40;69.60
78184;DHT22;67442;44.570;18.610;2023-11-21T11:18:43;21.40;69.60
78184;DHT22;67442;44.570;18.610;2023-11-21T11:21:34;21.40;69.60
78184;DHT22;67442;44.570;18.610;2023-11-21T11:27:37;21.40;69.60
78184;DHT22;67442;44.570;18.610;2023-11-21T11:36:29;21.40;69.60
78184;DHT22;67442;44.570;18.610;2023-11-21T11:39:00;21.40;69.60
78184;DHT22;67442;44.570;18.610;2023-11-21T11:41:32;21.30;69.60
78184;DHT22;67442;44.570;18.610;2023-11-21T11:44:01;21.30;69.60
78184;DHT22;67442;44.570;18.610;2023-11-21T11:46:45;21.40;69.60
78184;DHT22;67442;44.570;18.610;2023-11-21T11:49:28;21.30;69.50
78184;DHT22;67442;44.570;18.610;2023-11-21T11:52:34;21.40;69.60
78184;DHT22;67442;44.570;18.610;2023-11-21T11:55:10;21.30;69.50
78184;DHT22;67442;44.570;18.610;2023-11-21T11:57:41;21.30;69.60
78184;DHT22;67442;44.570;18.610;2023-11-21T12:00:17;21.30;69.60
78184;DHT22;67442;44.570;18.610;2023-11-21T12:03:04;21.30;69.50
78184;DHT22;67442;44.570;18.610;2023-11-21T12:05:33;21.30;69.60
78184;DHT22;67442;44.570;18.610;2023-11-21T12:08:07;21.30;70.30
78184;DHT22;67442;44.570;18.610;2023-11-21T12:10:36;21.30;69.60
78184;DHT22;67442;44.570;18.610;2023-11-21T12:13:09;21.30;69.60
78184;DHT22;67442;44.570;18.610;2023-11-21T12:15:36;21.30;69.60
78184;DHT22;67442;44.570;18.610;2023-11-21T12:18:04;21.30;69.50
78184;DHT22;67442;44.570;18.610;2023-11-21T12:20:35;21.30;69.50
78184;DHT22;67442;44.570;18.610;2023-11-21T12:23:08;21.30;69.50
78184;DHT22;67442;44.570;18.610;2023-11-21T12:25:40;21.30;69.50
78184;DHT22;67442;44.570;18.610;2023-11-21T12:28:08;21.30;69.60
78184;DHT22;67442;44.570;18.610;2023-11-21T12:30:36;21.30;69.50
78184;DHT22;67442;44.570;18.610;2023-11-21T12:33:08;21.30;69.60
78184;DHT22;67442;44.570;18.610;2023-11-21T12:35:43;21.30;69.50
78184;DHT22;67442;44.570;18.610;2023-11-21T12:38:11;21.30;69.50
78184;DHT22;67442;44.570;18.610;2023-11-21T12:40:38;21.30;69.50
78184;DHT22;67442;44.570;18.610;2023-11-21T12:43:07;21.30;69.50
78184;DHT22;67442;44.570;18.610;2023-11-21T12:45:36;21.30;69.60
78184;DHT22;67442;44.570;18.610;2023-11-21T12:48:05;21.30;69.50
78184;DHT22;67442;44.570;18.610;2023-11-21T12:50:38;21.30;69.50
78184;DHT22;67442;44.570;18.610;2023-11-21T12:53:11;21.30;69.50
78184;DHT22;67442;44.570;18.610;2023-11-21T12:55:44;21.30;69.50
78184;DHT22;67442;44.570;18.610;2023-11-21T12:58:16;21.30;69.50
78184;DHT22;67442;44.570;18.610;2023-11-21T13:00:47;21.30;69.50
78184;DHT22;67442;44.570;18.610;2023-11-21T13:03:17;21.20;69.40
78184;DHT22;67442;44.570;18.610;2023-11-21T13:05:50;21.30;69.50
78184;DHT22;67442;44.570;18.610;2023-11-21T13:08:21;21.30;69.50
78184;DHT22;67442;44.570;18.610;2023-11-21T13:10:53;21.30;69.50
78184;DHT22;67442;44.570;18.610;2023-11-21T13:13:21;21.30;69.50
78184;DHT22;67442;44.570;18.610;2023-11-21T13:16:01;21.30;69.50
78184;DHT22;67442;44.570;18.610;2023-11-21T13:18:34;21.30;69.50
78184;DHT22;67442;44.570;18.610;2023-11-21T13:21:07;21.20;69.40
78184;DHT22;67442;44.570;18.610;2023-11-21T13:23:42;21.20;69.40
78184;DHT22;67442;44.570;18.610;2023-11-21T13:26:10;21.20;69.40
78184;DHT22;67442;44.570;18.610;2023-11-21T13:28:38;21.20;69.40
78184;DHT22;67442;44.570;18.610;2023-11-21T13:31:08;21.20;69.40
78184;DHT22;67442;44.570;18.610;2023-11-21T13:33:48;21.20;69.40
78184;DHT22;67442;44.570;18.610;2023-11-21T13:36:25;21.20;69.40
78184;DHT22;67442;44.570;18.610;2023-11-21T13:38:56;21.20;69.40
78184;DHT22;67442;44.570;18.610;2023-11-21T13:41:25;21.20;69.40
78184;DHT22;67442;44.570;18.610;2023-11-21T13:43:57;21.20;69.40
78184;DHT22;67442;44.570;18.610;2023-11-21T13:46:33;21.20;69.40
78184;DHT22;67442;44.570;18.610;2023-11-21T13:49:03;21.20;69.40
78184;DHT22;67442;44.570;18.610;2023-11-21T13:51:38;21.20;69.30
78184;DHT22;67442;44.570;18.610;2023-11-21T13:54:10;21.20;69.30
78184;DHT22;67442;44.570;18.610;2023-11-21T13:56:42;21.20;69.30
78184;DHT22;67442;44.570;18.610;2023-11-21T13:59:11;21.20;69.30
78184;DHT22;67442;44.570;18.610;2023-11-21T14:01:51;21.20;69.40
78184;DHT22;67442;44.570;18.610;2023-11-21T14:04:38;21.20;69.30
78184;DHT22;67442;44.570;18.610;2023-11-21T14:07:21;21.20;69.30
78184;DHT22;67442;44.570;18.610;2023-11-21T14:10:03;21.20;69.30
78184;DHT22;67442;44.570;18.610;2023-11-21T14:12:39;21.20;69.30
78184;DHT22;67442;44.570;18.610;2023-11-21T14:15:10;21.20;69.30
78184;DHT22;67442;44.570;18.610;2023-11-21T14:17:38;21.20;69.30
78184;DHT22;67442;44.570;18.610;2023-11-21T14:20:09;21.20;69.30
78184;DHT22;67442;44.570;18.610;2023-11-21T14:22:42;21.10;69.30
78184;DHT22;67442;44.570;18.610;2023-11-21T14:25:09;21.20;69.30
78184;DHT22;67442;44.570;18.610;2023-11-21T14:27:41;21.20;69.40
78184;DHT22;67442;44.570;18.610;2023-11-21T14:30:08;21.20;69.30
78184;DHT22;67442;44.570;18.610;2023-11-21T14:32:39;21.20;69.30
78184;DHT22;67442;44.570;18.610;2023-11-21T14:35:08;21.20;69.30
78184;DHT22;67442;44.570;18.610;2023-11-21T14:37:35;21.10;69.30
78184;DHT22;67442;44.570;18.610;2023-11-21T14:40:07;21.20;69.30
78184;DHT22;67442;44.570;18.610;2023-11-21T14:42:36;21.20;69.30
78184;DHT22;67442;44.570;18.610;2023-11-21T14:45:08;21.10;69.30
78184;DHT22;67442;44.570;18.610;2023-11-21T14:47:42;21.20;69.30
78184;DHT22;67442;44.570;18.610;2023-11-21T14:50:14;21.10;69.30
78184;DHT22;67442;44.570;18.610;2023-11-21T14:53:01;21.10;69.30
78184;DHT22;67442;44.570;18.610;2023-11-21T14:55:35;21.10;69.30
78184;DHT22;67442;44.570;18.610;2023-11-21T14:58:27;21.10;69.30
78184;DHT22;67442;44.570;18.610;2023-11-21T15:00:56;21.10;69.20
78184;DHT22;67442;44.570;18.610;2023-11-21T15:03:24;21.10;69.20
78184;DHT22;67442;44.570;18.610;2023-11-21T15:06:02;21.10;69.30
78184;DHT22;67442;44.570;18.610;2023-11-21T15:08:51;21.10;69.20
78184;DHT22;67442;44.570;18.610;2023-11-21T15:11:43;21.10;69.30
78184;DHT22;67442;44.570;18.610;2023-11-21T15:14:10;21.10;69.20
78184;DHT22;67442;44.570;18.610;2023-11-21T15:16:45;21.10;69.20
78184;DHT22;67442;44.570;18.610;2023-11-21T15:19:17;21.10;69.30
78184;DHT22;67442;44.570;18.610;2023-11-21T15:21:54;21.10;69.20
78184;DHT22;67442;44.570;18.610;2023-11-21T15:24:22;21.10;69.30
78184;DHT22;67442;44.570;18.610;2023-11-21T15:26:54;21.10;69.20
78184;DHT22;67442;44.570;18.610;2023-11-21T15:29:20;21.10;69.30
78184;DHT22;67442;44.570;18.610;2023-11-21T15:31:48;21.10;69.30
78184;DHT22;67442;44.570;18.610;2023-11-21T15:34:15;21.10;69.20
78184;DHT22;67442;44.570;18.610;2023-11-21T15:36:43;21.10;69.20
78184;DHT22;67442;44.570;18.610;2023-11-21T15:39:10;21.10;69.30
78184;DHT22;67442;44.570;18.610;2023-11-21T15:41:40;21.10;69.30
78184;DHT22;67442;44.570;18.610;2023-11-21T15:44:11;21.10;69.40
78184;DHT22;67442;44.570;18.610;2023-11-21T15:46:39;21.10;69.40